Time;durP1;ratioP1;P1;durP2;ratioP2;P2;SDS_P1;SDS_P2;PMS_P1;PMS_P2;Temp;Humidity;BMP_temperature;BMP_pressure;BME280_temperature;BME280_humidity;BME280_pressure;Samples;Min_cycle;Max_cycle;Signal;HPM_P1;HPM_P2
2022/03/20 00:00:09;;;;;;;10.73;3.70;;;;;;;18.99;53.05;101379.88;5112613;28;20178;-59
2022/03/20 00:02:35;;;;;;;17.13;4.57;;;;;;;19.02;52.70;101370.56;5095060;28;20600;-60
2022/03/20 00:05:02;;;;;;;7.13;3.97;;;;;;;19.00;53.01;101375.81;5115349;27;20989;-59
2022/03/20 00:07:28;;;;;;;9.67;4.10;;;;;;;18.98;52.92;101363.91;5123006;27;20926;-60
2022/03/20 00:09:53;;;;;;;8.40;3.80;;;;;;;18.98;52.64;101372.50;5112584;28;20436;-59
2022/03/20 00:12:19;;;;;;;10.43;3.47;;;;;;;18.98;52.94;101368.78;5114572;27;20627;-60
2022/03/20 00:14:45;;;;;;;12.83;4.13;;;;;;;18.97;53.31;101361.41;5112490;28;20518;-59
2022/03/20 00:17:10;;;;;;;13.70;3.60;;;;;;;18.98;52.87;101363.91;5122059;27;20200;-59
2022/03/20 00:19:39;;;;;;;9.40;3.83;;;;;;;19.01;52.75;101366.03;5132869;27;20698;-60
2022/03/20 00:22:05;;;;;;;10.07;3.70;;;;;;;18.98;53.05;101363.91;5120012;27;20197;-59
2022/03/20 00:24:30;;;;;;;9.70;3.90;;;;;;;18.99;52.78;101359.84;5112631;28;20452;-60
2022/03/20 00:27:00;;;;;;;8.10;3.43;;;;;;;18.98;52.78;101360.19;5111774;28;20216;-60
2022/03/20 00:29:26;;;;;;;9.43;3.60;;;;;;;19.01;52.97;101353.78;5112315;28;20723;-59
2022/03/20 00:31:51;;;;;;;10.00;3.50;;;;;;;18.96;52.95;101345.44;5112305;28;20416;-60
2022/03/20 00:34:17;;;;;;;9.10;3.43;;;;;;;18.97;52.72;101338.50;5114061;27;20174;-60
2022/03/20 00:36:42;;;;;;;6.23;3.57;;;;;;;18.96;53.05;101339.72;5111865;28;20625;-59
2022/03/20 00:39:08;;;;;;;18.50;4.37;;;;;;;18.97;52.81;101336.47;5112271;28;20326;-60
2022/03/20 00:41:33;;;;;;;13.07;3.80;;;;;;;18.96;53.02;101331.13;5118353;27;20184;-60
2022/03/20 00:43:59;;;;;;;8.07;3.47;;;;;;;18.94;52.96;101328.63;5112390;28;20211;-59
2022/03/20 00:46:25;;;;;;;8.30;3.60;;;;;;;18.97;53.28;101321.34;5111830;28;20172;-60
2022/03/20 00:48:50;;;;;;;7.87;3.53;;;;;;;18.94;52.98;101328.63;5111672;28;20185;-60
2022/03/20 00:51:16;;;;;;;8.33;3.77;;;;;;;18.94;53.23;101322.03;5111906;28;20774;-59
2022/03/20 00:53:45;;;;;;;6.77;4.20;;;;;;;18.94;53.05;101324.91;5112104;28;20204;-59
2022/03/20 00:56:12;;;;;;;6.73;3.60;;;;;;;18.94;53.11;101322.88;5114632;27;20953;-59
2022/03/20 00:58:38;;;;;;;10.53;3.47;;;;;;;18.97;52.69;101327.06;5112039;28;20451;-59
2022/03/20 01:01:04;;;;;;;5.93;2.80;;;;;;;18.95;52.60;101326.56;5111280;28;20774;-60
2022/03/20 01:03:29;;;;;;;8.90;3.57;;;;;;;18.95;52.93;101321.69;5113175;27;20201;-59
2022/03/20 01:05:55;;;;;;;7.97;3.33;;;;;;;18.94;52.58;101328.63;5111755;28;20286;-60
2022/03/20 01:08:20;;;;;;;7.47;3.40;;;;;;;18.94;52.90;101328.63;5111522;28;20213;-60
2022/03/20 01:10:46;;;;;;;11.30;3.57;;;;;;;18.93;52.99;101321.22;5110927;28;20181;-60
2022/03/20 01:13:11;;;;;;;6.70;3.37;;;;;;;18.92;52.99;101316.66;5111505;28;20178;-60
2022/03/20 01:15:37;;;;;;;8.30;3.77;;;;;;;18.91;52.85;101309.28;5111697;28;20177;-60
2022/03/20 01:18:03;;;;;;;9.53;3.60;;;;;;;18.93;52.61;101314.66;5127754;27;20499;-60
2022/03/20 01:20:28;;;;;;;16.10;3.90;;;;;;;18.93;53.30;101320.38;5131992;27;20176;-60
2022/03/20 01:22:53;;;;;;;8.33;3.47;;;;;;;18.94;52.83;101322.88;5130094;27;20936;-60
2022/03/20 01:25:19;;;;;;;7.03;3.20;;;;;;;18.91;52.64;101317.88;5111084;28;20563;-59
2022/03/20 01:27:44;;;;;;;8.30;3.10;;;;;;;18.91;52.73;101317.06;5110228;28;20201;-60
2022/03/20 01:30:10;;;;;;;9.07;3.80;;;;;;;18.93;52.95;101315.50;5110663;28;20199;-60
2022/03/20 01:32:35;;;;;;;7.13;3.87;;;;;;;18.94;52.83;101324.91;5111129;28;20679;-60
2022/03/20 01:35:01;;;;;;;7.83;3.70;;;;;;;18.91;52.76;101311.34;5110752;28;20177;-59
2022/03/20 01:37:26;;;;;;;5.70;2.80;;;;;;;18.90;52.74;101310.50;5110881;28;20158;-60
2022/03/20 01:39:52;;;;;;;7.03;3.20;;;;;;;18.92;52.76;101304.41;5122004;27;20178;-60
2022/03/20 01:42:21;;;;;;;7.20;3.70;;;;;;;18.91;53.03;101294.97;5098674;28;20181;-60
2022/03/20 01:44:47;;;;;;;7.23;3.20;;;;;;;18.90;52.98;101303.91;5109963;28;20169;-59
2022/03/20 01:47:12;;;;;;;7.77;2.87;;;;;;;18.88;52.75;101295.72;5109496;28;20512;-59
2022/03/20 01:49:38;;;;;;;6.73;3.37;;;;;;;18.91;52.67;101291.31;5109940;28;20235;-59
2022/03/20 01:52:13;;;;;;;8.77;3.70;;;;;;;18.91;52.62;101288.44;5110788;28;20189;-59
2022/03/20 01:54:44;;;;;;;6.93;3.43;;;;;;;18.88;52.78;101284.28;5110961;28;20177;-59
2022/03/20 01:57:12;;;;;;;6.47;3.23;;;;;;;18.88;53.03;101287.13;5110996;28;20414;-60
2022/03/20 01:59:37;;;;;;;8.77;3.47;;;;;;;18.90;52.72;101284.72;5110596;28;20823;-59
2022/03/20 02:02:03;;;;;;;5.43;2.83;;;;;;;18.90;52.95;101298.19;5110284;28;20430;-59
2022/03/20 02:04:29;;;;;;;7.90;3.40;;;;;;;18.92;52.64;101295.81;5128302;27;20231;-60
2022/03/20 02:06:54;;;;;;;6.23;3.03;;;;;;;18.88;52.79;101292.84;5131139;27;20197;-59
2022/03/20 02:09:20;;;;;;;6.87;3.30;;;;;;;18.87;52.92;101288.31;5130633;27;20258;-59
2022/03/20 02:11:47;;;;;;;6.40;3.33;;;;;;;18.90;52.76;101286.75;5110770;28;20268;-59
2022/03/20 02:14:13;;;;;;;9.37;3.67;;;;;;;18.88;52.56;101287.13;5113086;27;20430;-60
2022/03/20 02:16:38;;;;;;;8.27;3.40;;;;;;;18.89;52.68;101282.22;5115476;27;20758;-60
2022/03/20 02:19:08;;;;;;;9.77;3.60;;;;;;;18.90;52.76;101284.72;5130800;27;20565;-59
2022/03/20 02:21:41;;;;;;;7.90;3.70;;;;;;;18.87;52.65;101271.13;5109966;28;20181;-60
2022/03/20 02:24:28;;;;;;;5.87;3.13;;;;;;;18.86;53.02;101280.09;5110586;28;20412;-59
2022/03/20 02:27:07;;;;;;;8.93;3.63;;;;;;;18.88;52.53;101272.84;5110542;28;20463;-59
2022/03/20 02:29:32;;;;;;;7.87;3.37;;;;;;;18.90;53.07;101281.88;5122211;28;20422;-59
2022/03/20 02:31:59;;;;;;;6.30;3.33;;;;;;;18.89;52.65;101265.06;5119517;28;20704;-59
2022/03/20 02:34:27;;;;;;;7.53;3.40;;;;;;;18.90;52.75;101258.13;5111010;28;20647;-59
2022/03/20 02:36:53;;;;;;;8.67;3.47;;;;;;;18.86;52.80;101258.03;5114595;28;20492;-59
2022/03/20 02:39:18;;;;;;;6.40;3.13;;;;;;;18.87;52.20;101259.69;5113865;28;20443;-59
2022/03/20 02:41:44;;;;;;;9.83;3.40;;;;;;;18.85;53.27;101253.50;5121037;27;20456;-59
2022/03/20 02:44:09;;;;;;;7.47;3.70;;;;;;;18.92;52.83;101259.44;5096710;28;20547;-59
2022/03/20 02:46:37;;;;;;;8.60;3.53;;;;;;;18.87;53.14;101256.81;5114301;28;20277;-59
2022/03/20 02:49:05;;;;;;;5.93;3.50;;;;;;;18.86;52.75;101255.16;5114043;28;20264;-59
2022/03/20 02:51:30;;;;;;;5.17;3.27;;;;;;;18.85;52.86;101256.38;5113989;28;20411;-60
2022/03/20 02:53:57;;;;;;;8.03;3.63;;;;;;;18.84;52.80;101260.44;5116869;27;20427;-59
2022/03/20 02:56:23;;;;;;;6.90;3.00;;;;;;;18.86;52.60;101257.22;5114454;28;20662;-61
2022/03/20 02:58:49;;;;;;;6.23;3.37;;;;;;;18.86;52.63;101257.22;5114977;27;20419;-59
2022/03/20 03:01:16;;;;;;;5.50;2.97;;;;;;;18.84;53.05;101245.28;5129484;27;20165;-59
2022/03/20 03:03:45;;;;;;;7.40;3.20;;;;;;;18.86;52.79;101246.59;5134885;27;20205;-59
2022/03/20 03:06:13;;;;;;;5.87;3.20;;;;;;;18.83;52.92;101250.19;5134802;27;20465;-59
2022/03/20 03:11:23;;;;;;;4.33;2.50;;;;;;;18.88;52.47;101249.94;5117538;27;20423;-59
2022/03/20 03:13:48;;;;;;;5.97;3.00;;;;;;;18.88;52.42;101252.81;5112486;28;20784;-59
2022/03/20 03:16:14;;;;;;;7.13;3.00;;;;;;;18.85;52.82;101244.94;5114996;27;20569;-60
2022/03/20 03:18:44;;;;;;;4.77;2.80;;;;;;;18.87;52.45;101239.66;5115826;27;20165;-59
2022/03/20 03:21:10;;;;;;;6.93;3.33;;;;;;;18.84;52.80;101246.13;5134053;27;20501;-59
2022/03/20 03:23:36;;;;;;;6.10;3.23;;;;;;;18.84;53.18;101245.28;5134403;27;20451;-59
2022/03/20 03:26:02;;;;;;;6.43;3.43;;;;;;;18.85;52.62;101252.66;5134497;27;20422;-59
2022/03/20 03:28:37;;;;;;;8.20;4.10;;;;;;;18.85;52.57;101262.09;5133717;27;20601;-59
2022/03/20 03:31:10;;;;;;;7.17;3.37;;;;;;;18.84;52.49;101263.28;5133815;27;20209;-59
2022/03/20 03:35:41;;;;;;;7.33;3.73;;;;;;;18.83;52.49;101261.63;5126097;27;20444;-59
2022/03/20 03:36:22;;;;;;;6.30;3.07;;;;;;;18.85;52.43;101269.81;5113033;28;20437;-59
2022/03/20 03:38:48;;;;;;;5.40;3.60;;;;;;;18.83;52.74;101255.06;5113061;28;20415;-59
2022/03/20 03:41:13;;;;;;;7.00;2.97;;;;;;;18.83;52.42;101257.91;5116768;27;20580;-60
2022/03/20 03:43:43;;;;;;;7.10;3.00;;;;;;;18.87;52.21;101250.28;5116361;27;20182;-59
2022/03/20 03:46:08;;;;;;;5.73;3.20;;;;;;;18.84;53.04;101260.44;5094332;28;20513;-58
2022/03/20 03:48:33;;;;;;;7.33;3.47;;;;;;;18.84;52.43;101260.44;5112794;28;20470;-59
2022/03/20 03:50:59;;;;;;;4.90;2.80;;;;;;;18.82;52.38;101256.25;5112894;28;20178;-59
2022/03/20 03:53:24;;;;;;;5.83;3.03;;;;;;;18.81;52.66;101258.28;5113026;28;20207;-59
2022/03/20 03:55:50;;;;;;;5.47;3.13;;;;;;;18.83;52.69;101253.03;5113141;28;20190;-59
2022/03/20 03:58:15;;;;;;;5.57;3.10;;;;;;;18.82;52.61;101251.34;5112795;28;20162;-59
2022/03/20 04:00:41;;;;;;;6.20;3.37;;;;;;;18.84;52.48;101251.84;5112835;28;20189;-59
2022/03/20 04:03:07;;;;;;;5.47;3.20;;;;;;;18.85;52.34;101261.25;5112920;28;20170;-59
2022/03/20 04:05:34;;;;;;;6.20;3.80;;;;;;;18.85;52.33;101264.09;5112599;28;20482;-59
2022/03/20 04:08:06;;;;;;;4.80;3.30;;;;;;;18.87;52.31;101273.19;5112494;28;20664;-59
2022/03/20 04:10:31;;;;;;;5.53;2.87;;;;;;;18.84;52.33;101266.16;5118823;27;20524;-59
2022/03/20 04:12:57;;;;;;;8.53;3.27;;;;;;;18.82;52.51;101274.25;5121838;27;20431;-59
2022/03/20 04:15:24;;;;;;;11.20;3.30;;;;;;;18.85;52.63;101275.56;5112565;28;20539;-60
2022/03/20 04:17:50;;;;;;;5.20;3.40;;;;;;;18.85;52.33;101272.69;5127292;27;20165;-59
2022/03/20 04:20:15;;;;;;;4.40;2.50;;;;;;;18.81;52.56;101278.31;5115571;27;20427;-59
2022/03/20 04:23:42;;;;;;;5.23;3.00;;;;;;;18.85;52.44;101275.56;5111461;28;20170;-59
2022/03/20 04:25:27;;;;;;;8.17;3.50;;;;;;;18.81;52.88;101277.50;5111146;28;20197;-59
2022/03/20 04:27:56;;;;;;;5.17;2.80;;;;;;;18.84;52.68;101277.59;5112282;28;20443;-59
2022/03/20 04:30:25;;;;;;;6.97;2.93;;;;;;;18.83;52.80;101287.38;5112331;28;20188;-59
2022/03/20 04:32:52;;;;;;;6.03;3.60;;;;;;;18.81;52.53;101280.34;5115474;27;20411;-59
2022/03/20 04:35:19;;;;;;;6.33;2.80;;;;;;;18.81;52.36;101286.88;5113360;27;20411;-59
2022/03/20 04:37:44;;;;;;;8.37;3.03;;;;;;;18.82;52.73;101282.81;5128800;27;20468;-59
2022/03/20 04:40:10;;;;;;;4.03;2.80;;;;;;;18.82;52.54;101282.81;5126198;27;20427;-59
2022/03/20 04:42:36;;;;;;;6.50;3.60;;;;;;;18.85;52.63;101284.97;5119033;27;20227;-59
2022/03/20 04:45:04;;;;;;;4.97;3.20;;;;;;;18.84;52.20;101289.03;5112060;28;20435;-59
2022/03/20 04:58:32;;;;;;;4.00;2.77;;;;;;;18.83;52.14;101309.41;5132239;27;20398;-59
2022/03/20 05:00:57;;;;;;;4.37;2.73;;;;;;;18.84;52.14;101309.06;5131800;27;20481;-59
2022/03/20 05:03:24;;;;;;;5.93;3.33;;;;;;;18.83;52.61;101297.97;5131692;27;20495;-59
2022/03/20 05:05:49;;;;;;;7.83;3.60;;;;;;;18.82;52.36;101297.13;5129187;27;20703;-59
2022/03/20 05:08:15;;;;;;;4.60;2.67;;;;;;;18.80;52.42;101299.53;5128552;27;20466;-59
2022/03/20 05:13:24;;;;;;;6.30;3.07;;;;;;;18.82;52.34;101331.47;5111667;28;20197;-59
2022/03/20 05:15:53;;;;;;;7.20;3.00;;;;;;;18.85;52.18;101315.59;5111489;28;20423;-59
2022/03/20 05:18:19;;;;;;;6.53;2.90;;;;;;;18.86;52.14;101311.56;5130403;27;20169;-59
2022/03/20 05:20:44;;;;;;;6.67;3.07;;;;;;;18.83;52.49;101301.69;5131513;27;20962;-59
2022/03/20 05:23:10;;;;;;;5.13;3.03;;;;;;;18.84;52.31;101299.63;5132198;27;20196;-59
2022/03/20 05:25:36;;;;;;;6.53;2.73;;;;;;;18.82;52.33;101302.84;5131863;27;20590;-59
2022/03/20 05:28:02;;;;;;;4.03;2.67;;;;;;;18.80;52.23;101302.38;5096580;27;20773;-59
2022/03/20 05:30:27;;;;;;;5.90;3.10;;;;;;;18.85;52.06;101312.75;5131530;27;20169;-59
2022/03/20 05:32:53;;;;;;;6.90;3.80;;;;;;;18.82;52.23;101317.16;5131665;27;20894;-59
2022/03/20 05:35:18;;;;;;;4.97;3.07;;;;;;;18.81;52.12;101318.34;5130629;27;20197;-59
2022/03/20 05:37:44;;;;;;;6.17;3.23;;;;;;;18.82;52.54;101325.75;5131098;27;20161;-59
2022/03/20 05:40:10;;;;;;;4.97;2.80;;;;;;;18.84;52.23;101331.97;5113676;27;20216;-60
2022/03/20 05:42:38;;;;;;;5.40;3.17;;;;;;;18.82;52.34;101325.75;5117857;27;20539;-59
2022/03/20 05:45:04;;;;;;;6.13;3.27;;;;;;;18.83;51.91;101333.16;5110934;28;20291;-59
2022/03/20 05:47:32;;;;;;;4.37;3.17;;;;;;;18.81;52.28;101324.06;5110833;28;20446;-60
2022/03/20 05:50:01;;;;;;;4.97;3.00;;;;;;;18.82;52.02;101337.19;5110253;28;20477;-59
2022/03/20 05:52:29;;;;;;;5.07;3.10;;;;;;;18.82;52.13;101342.91;5110868;28;20442;-59
2022/03/20 05:54:55;;;;;;;7.13;3.80;;;;;;;18.83;52.41;101338.03;5111014;28;20419;-59
2022/03/20 06:00:06;;;;;;;5.97;3.50;;;;;;;18.81;52.41;101344.09;5110540;28;20234;-60
2022/03/20 06:02:34;;;;;;;5.10;2.90;;;;;;;18.81;52.13;101346.97;5110428;28;20419;-59
2022/03/20 06:04:59;;;;;;;5.80;3.03;;;;;;;18.81;52.12;101361.28;5112469;27;20490;-59
2022/03/20 06:07:25;;;;;;;4.17;3.03;;;;;;;18.80;52.67;101359.59;5110615;28;20431;-59
2022/03/20 06:09:50;;;;;;;5.93;3.13;;;;;;;18.83;52.40;101358.91;5109797;28;20185;-59
2022/03/20 06:12:15;;;;;;;5.37;3.03;;;;;;;18.78;52.67;101355.44;5110781;28;20166;-59
2022/03/20 06:14:41;;;;;;;9.73;2.77;;;;;;;18.80;52.21;101359.59;5112439;27;20181;-59
2022/03/20 06:17:09;;;;;;;6.20;3.20;;;;;;;18.83;52.34;101360.91;5117843;27;20218;-60
2022/03/20 06:19:35;;;;;;;4.50;3.13;;;;;;;18.80;52.02;101368.19;5130377;27;20207;-59
2022/03/20 06:22:00;;;;;;;4.90;3.07;;;;;;;18.78;52.51;101382.03;5131126;27;20411;-59
2022/03/20 06:24:26;;;;;;;4.23;2.73;;;;;;;18.78;52.40;101375.47;5131376;28;20163;-59
2022/03/20 06:26:51;;;;;;;5.07;3.27;;;;;;;18.79;52.56;101366.53;5127857;28;20740;-59
2022/03/20 06:29:16;;;;;;;6.80;2.83;;;;;;;18.81;52.16;101377.63;5110020;28;20169;-59
2022/03/20 06:31:42;;;;;;;3.87;2.70;;;;;;;18.81;52.17;101377.63;5109913;28;20179;-59
2022/03/20 06:34:08;;;;;;;7.83;3.37;;;;;;;18.79;52.19;101383.69;5111640;28;20206;-59
2022/03/20 06:36:34;;;;;;;3.40;2.30;;;;;;;18.81;51.90;101384.16;5109416;28;20158;-59
2022/03/20 06:38:59;;;;;;;5.13;2.90;;;;;;;18.81;52.05;101381.28;5112350;28;20419;-59
2022/03/20 06:41:24;;;;;;;4.70;3.30;;;;;;;18.82;52.28;101382.16;5115581;28;20234;-59
2022/03/20 06:43:50;;;;;;;4.30;3.03;;;;;;;18.78;51.62;101382.03;5122374;28;20177;-59
2022/03/20 06:46:15;;;;;;;5.80;3.77;;;;;;;18.80;52.05;101376.78;5130417;28;20570;-59
2022/03/20 06:48:41;;;;;;;5.13;3.17;;;;;;;18.79;52.04;101383.69;5130786;28;20196;-59
2022/03/20 06:51:06;;;;;;;6.20;3.43;;;;;;;18.82;52.12;101390.72;5130019;28;20200;-59
2022/03/20 06:53:33;;;;;;;5.20;3.20;;;;;;;18.80;52.07;101396.81;5127641;28;20256;-59
2022/03/20 06:55:59;;;;;;;5.17;3.00;;;;;;;18.83;51.87;101390.38;5130153;28;20172;-59
2022/03/20 06:58:24;;;;;;;4.27;3.13;;;;;;;18.80;52.43;101384.50;5130605;28;20407;-59
2022/03/20 07:00:50;;;;;;;5.60;3.70;;;;;;;18.80;52.16;101398.81;5122692;28;20178;-59
2022/03/20 07:03:16;;;;;;;6.27;3.37;;;;;;;18.82;52.32;101400.13;5110160;28;20182;-59
2022/03/20 07:05:42;;;;;;;4.73;2.93;;;;;;;18.81;52.13;101400.50;5110017;28;20499;-59
2022/03/20 07:08:07;;;;;;;5.70;3.23;;;;;;;18.82;51.94;101405.84;5110056;28;20202;-59
2022/03/20 07:10:32;;;;;;;4.07;3.10;;;;;;;18.88;51.92;101398.72;5109403;28;20546;-59
2022/03/20 07:15:44;;;;;;;5.70;3.20;;;;;;;18.81;52.09;101414.81;5109940;28;20161;-60
2022/03/20 07:18:10;;;;;;;5.50;2.97;;;;;;;18.79;52.21;101423.75;5127564;28;20415;-59
2022/03/20 07:20:40;;;;;;;4.50;3.27;;;;;;;18.80;52.21;101421.69;5131847;27;20414;-59
2022/03/20 07:23:09;;;;;;;3.93;2.80;;;;;;;18.78;52.24;101439.25;5134417;27;20448;-59
2022/03/20 07:31:02;;;;;;;6.10;3.30;;;;;;;18.81;52.18;101431.97;5133801;27;20444;-59
2022/03/20 07:33:28;;;;;;;5.00;3.10;;;;;;;18.80;52.18;101425.41;5134039;27;21088;-59
2022/03/20 07:35:53;;;;;;;4.53;3.07;;;;;;;18.78;52.17;101413.50;5133184;27;20172;-59
2022/03/20 07:38:19;;;;;;;4.17;3.00;;;;;;;18.78;52.15;101410.63;5133988;27;20642;-59
2022/03/20 07:40:44;;;;;;;4.67;3.03;;;;;;;18.81;51.98;101403.38;5124879;27;20185;-60
2022/03/20 07:43:09;;;;;;;5.20;2.97;;;;;;;18.80;51.96;101422.56;5120467;27;20177;-59
2022/03/20 07:45:35;;;;;;;5.10;2.93;;;;;;;18.78;52.17;101424.94;5112923;28;20174;-59
2022/03/20 07:48:00;;;;;;;4.47;3.10;;;;;;;18.82;52.24;101437.31;5113281;28;20655;-60
2022/03/20 07:50:26;;;;;;;4.37;2.60;;;;;;;18.79;52.17;101420.88;5112866;28;20652;-59
2022/03/20 07:52:51;;;;;;;4.27;3.00;;;;;;;18.79;52.08;101432.31;5113354;28;20178;-59
2022/03/20 07:55:17;;;;;;;4.93;2.90;;;;;;;18.80;52.14;101447.44;5113053;28;20628;-59
2022/03/20 07:57:43;;;;;;;4.67;3.37;;;;;;;18.83;52.01;101452.47;5094466;28;20189;-59
2022/03/20 08:00:09;;;;;;;4.77;2.43;;;;;;;18.79;51.95;101457.22;5113105;28;20253;-59
2022/03/20 08:02:36;;;;;;;4.93;2.83;;;;;;;18.82;51.90;101460.22;5094720;28;20419;-59
2022/03/20 08:05:01;;;;;;;6.70;2.80;;;;;;;18.81;52.33;101472.84;5112554;28;20592;-59
2022/03/20 08:07:27;;;;;;;4.83;2.70;;;;;;;18.85;51.72;101485.25;5112534;28;20541;-59
2022/03/20 08:09:52;;;;;;;4.33;2.77;;;;;;;18.84;52.10;101495.03;5115465;27;20178;-59
2022/03/20 08:12:18;;;;;;;5.50;3.20;;;;;;;18.82;51.88;101490.88;5112515;28;20198;-59
2022/03/20 08:14:44;;;;;;;4.90;3.07;;;;;;;18.81;52.24;101507.19;5094583;28;20563;-59
2022/03/20 08:17:10;;;;;;;5.23;2.90;;;;;;;18.85;52.02;101513.03;5121902;27;20532;-59
2022/03/20 08:19:35;;;;;;;4.50;3.03;;;;;;;18.84;51.89;101505.63;5120825;27;20423;-59
2022/03/20 08:22:03;;;;;;;5.43;3.10;;;;;;;18.81;51.90;101515.78;5112470;28;20194;-59
2022/03/20 08:24:28;;;;;;;5.73;3.40;;;;;;;18.82;52.16;101503.13;5112786;28;20177;-59
2022/03/20 08:26:54;;;;;;;5.00;3.27;;;;;;;18.84;51.94;101505.63;5114729;27;20504;-59
2022/03/20 08:29:20;;;;;;;4.73;3.20;;;;;;;18.82;52.06;101516.63;5112474;28;20178;-59
2022/03/20 08:31:47;;;;;;;5.07;3.30;;;;;;;18.85;52.01;101499.56;5111735;28;20170;-59
2022/03/20 08:34:15;;;;;;;4.30;2.50;;;;;;;18.82;51.73;101505.19;5114417;27;20213;-59
2022/03/20 08:36:42;;;;;;;4.97;3.27;;;;;;;18.80;51.94;101511.25;5132733;27;20446;-59
2022/03/20 08:39:07;;;;;;;4.30;3.20;;;;;;;18.84;51.72;101517.94;5133012;27;20976;-59
2022/03/20 08:41:34;;;;;;;5.00;3.00;;;;;;;18.83;51.95;101524.84;5120796;27;20426;-59
2022/03/20 08:44:01;;;;;;;4.80;3.10;;;;;;;18.81;52.21;101532.13;5112392;28;20181;-59
2022/03/20 08:46:26;;;;;;;6.03;3.27;;;;;;;18.82;52.23;101536.66;5111627;28;20410;-59
2022/03/20 08:48:52;;;;;;;5.60;3.07;;;;;;;18.79;51.91;101535.31;5114480;27;20966;-59
2022/03/20 08:51:17;;;;;;;4.37;3.20;;;;;;;18.79;51.92;101532.47;5111810;28;20170;-59
2022/03/20 08:53:43;;;;;;;4.60;3.00;;;;;;;18.79;51.79;101535.31;5122827;27;20193;-59
2022/03/20 08:56:08;;;;;;;4.30;2.80;;;;;;;18.77;52.09;101551.19;5132713;27;20677;-59
2022/03/20 08:58:34;;;;;;;4.80;3.27;;;;;;;18.77;52.02;101536.88;5132474;27;20632;-59
2022/03/20 09:00:59;;;;;;;4.60;3.00;;;;;;;18.78;52.26;101539.38;5131924;27;20565;-58
2022/03/20 09:03:25;;;;;;;4.90;3.30;;;;;;;18.78;52.06;101527.94;5132119;27;20176;-59
2022/03/20 09:05:50;;;;;;;4.40;3.00;;;;;;;18.81;52.00;101532.13;5131915;27;20236;-59
2022/03/20 09:08:16;;;;;;;6.13;3.33;;;;;;;18.78;52.05;101530.81;5131996;27;20678;-59
2022/03/20 09:10:41;;;;;;;5.67;2.90;;;;;;;18.78;52.11;101527.94;5120948;27;20184;-58
2022/03/20 09:13:07;;;;;;;3.80;2.80;;;;;;;18.78;51.99;101535.66;5111981;28;20511;-61
2022/03/20 09:15:32;;;;;;;4.80;3.20;;;;;;;18.72;51.87;101531.38;5111247;28;20713;-59
2022/03/20 09:20:42;;;;;;;5.50;3.40;;;;;;;18.75;52.28;101531.50;5132054;27;20188;-59
2022/03/20 09:23:08;;;;;;;5.20;3.20;;;;;;;18.78;51.99;101518.50;5132481;27;20403;-59
2022/03/20 09:25:34;;;;;;;4.37;3.20;;;;;;;18.78;51.70;101525.06;5131653;27;20787;-59
2022/03/20 09:28:00;;;;;;;4.73;3.03;;;;;;;18.75;51.85;101525.78;5130909;27;20465;-59
2022/03/20 09:30:26;;;;;;;6.07;3.07;;;;;;;18.74;52.31;101523.25;5130071;27;20183;-59
2022/03/20 09:32:51;;;;;;;5.17;3.43;;;;;;;18.74;52.02;101526.97;5131218;27;20859;-59
2022/03/20 09:35:17;;;;;;;4.33;2.67;;;;;;;18.74;52.07;101529.81;5131154;27;20173;-59
2022/03/20 09:37:42;;;;;;;4.60;2.80;;;;;;;18.75;52.20;101519.19;5129832;27;20165;-60
2022/03/20 09:40:12;;;;;;;5.27;3.33;;;;;;;18.78;52.39;101525.06;5112789;27;20185;-59
2022/03/20 09:42:37;;;;;;;4.50;3.23;;;;;;;18.76;52.11;101526.63;5100051;28;20192;-58
2022/03/20 09:45:06;;;;;;;4.90;3.27;;;;;;;18.78;51.88;101525.06;5092188;28;20423;-59
2022/03/20 09:47:37;;;;;;;4.53;3.20;;;;;;;18.80;51.87;101530.41;5092527;28;20206;-59
2022/03/20 09:50:03;;;;;;;3.90;2.60;;;;;;;18.79;51.78;101523.88;5108978;28;20473;-59
2022/03/20 09:52:28;;;;;;;4.30;3.17;;;;;;;18.77;51.91;101514.78;5109963;28;20439;-59
2022/03/20 09:54:54;;;;;;;4.03;3.07;;;;;;;18.80;52.00;101513.25;5111176;28;20166;-59
2022/03/20 09:57:19;;;;;;;4.20;3.13;;;;;;;18.79;51.95;101515.28;5110656;28;20172;-59
2022/03/20 09:59:45;;;;;;;4.80;3.40;;;;;;;18.78;51.98;101507.91;5110675;28;20161;-59
2022/03/20 10:02:11;;;;;;;5.03;3.20;;;;;;;18.78;52.05;101502.19;5111139;28;20173;-59
2022/03/20 10:04:56;;;;;;;3.70;3.00;;;;;;;18.79;52.10;101498.13;5110315;28;21038;-59
2022/03/20 10:07:23;;;;;;;4.00;2.87;;;;;;;18.80;51.82;101505.53;5110151;28;21065;-59
2022/03/20 10:10:11;;;;;;;5.23;3.67;;;;;;;18.77;51.80;101503.34;5113251;27;20415;-59
2022/03/20 10:12:40;;;;;;;4.93;3.53;;;;;;;18.80;51.85;101510.41;5113209;27;20906;-60
2022/03/20 10:15:08;;;;;;;4.10;2.93;;;;;;;18.76;52.42;101503.72;5109980;28;21362;-59
2022/03/20 10:18:04;;;;;;;4.33;3.00;;;;;;;18.81;51.84;101500.66;5104686;27;20430;-59
2022/03/20 10:20:34;;;;;;;4.10;2.70;;;;;;;18.76;52.12;101501.69;5111355;28;20403;-60
2022/03/20 10:22:59;;;;;;;5.20;3.40;;;;;;;18.78;52.26;101490.75;5076379;28;20967;-59
2022/03/20 10:25:25;;;;;;;6.43;3.83;;;;;;;18.79;52.01;101494.41;5093149;27;20412;-59
2022/03/20 10:27:57;;;;;;;7.30;4.27;;;;;;;18.80;51.84;101499.78;5111738;28;20193;-58
2022/03/20 10:30:23;;;;;;;5.30;3.60;;;;;;;18.81;51.99;101494.94;5112340;28;20229;-59
2022/03/20 10:32:49;;;;;;;5.77;2.80;;;;;;;18.78;52.00;101485.03;5111872;28;20780;-59
2022/03/20 10:35:14;;;;;;;4.63;3.40;;;;;;;18.81;52.12;101490.03;5108712;28;20185;-59
2022/03/20 10:37:55;;;;;;;4.90;3.20;;;;;;;18.78;51.85;101487.88;5110543;28;20394;-59
2022/03/20 10:40:23;;;;;;;4.33;2.93;;;;;;;18.79;51.92;101491.56;5109657;28;20199;-59
2022/03/20 10:43:09;;;;;;;4.90;2.90;;;;;;;18.81;52.10;101487.16;5117230;28;20880;-59
2022/03/20 10:45:50;;;;;;;4.57;3.30;;;;;;;18.78;51.86;101489.91;5111531;27;21000;-59
2022/03/20 10:48:16;;;;;;;6.43;3.77;;;;;;;18.78;51.95;101490.75;5127586;28;20450;-59
2022/03/20 10:50:48;;;;;;;6.60;3.60;;;;;;;18.78;52.17;101487.03;5109124;28;20491;-59
2022/03/20 10:53:13;;;;;;;5.07;3.20;;;;;;;18.77;52.20;101491.09;5110248;28;20408;-59
2022/03/20 10:55:42;;;;;;;3.90;2.60;;;;;;;18.79;51.88;101486.69;5110831;28;20426;-59
2022/03/20 10:58:20;;;;;;;5.03;3.23;;;;;;;18.78;52.20;101490.75;5113859;28;20214;-59
2022/03/20 11:00:46;;;;;;;4.77;3.30;;;;;;;18.79;52.21;101480.97;5113842;28;20422;-59
2022/03/20 11:03:15;;;;;;;4.37;3.27;;;;;;;18.80;51.95;101482.63;5114152;28;20392;-59
2022/03/20 11:05:40;;;;;;;4.53;3.23;;;;;;;18.79;52.06;101480.13;5113986;28;20217;-59
2022/03/20 11:08:06;;;;;;;5.30;3.50;;;;;;;18.79;52.27;101471.53;5095578;28;21059;-59
2022/03/20 11:10:31;;;;;;;4.30;3.13;;;;;;;18.79;52.44;101471.53;5113684;28;20907;-59
2022/03/20 11:12:58;;;;;;;3.67;2.60;;;;;;;18.80;52.27;101470.34;5095594;28;20154;-59
2022/03/20 11:15:23;;;;;;;4.43;3.40;;;;;;;18.77;52.15;101468.22;5114272;28;20224;-59
2022/03/20 11:17:49;;;;;;;6.97;3.20;;;;;;;18.80;51.99;101474.03;5110234;27;20422;-59
2022/03/20 11:20:16;;;;;;;4.50;3.47;;;;;;;18.81;51.94;101472.03;5132457;27;20154;-59
2022/03/20 11:22:49;;;;;;;4.47;3.10;;;;;;;18.81;51.97;101467.13;5133488;27;20153;-59
2022/03/20 11:25:20;;;;;;;4.60;3.10;;;;;;;18.81;52.24;101458.53;5134041;27;20414;-59
2022/03/20 11:27:59;;;;;;;3.83;2.60;;;;;;;18.81;51.99;101458.53;5134454;27;20798;-59
2022/03/20 11:30:29;;;;;;;3.93;2.63;;;;;;;18.83;52.03;101459.03;5117369;27;20390;-59
2022/03/20 11:33:00;;;;;;;5.03;3.07;;;;;;;18.83;52.10;101452.47;5134066;27;20434;-59
2022/03/20 11:35:30;;;;;;;4.20;2.93;;;;;;;18.83;52.10;101456.19;5097858;27;22190;-59
2022/03/20 11:37:58;;;;;;;4.10;2.97;;;;;;;18.83;52.15;101459.03;5123915;27;20433;-59
2022/03/20 11:40:25;;;;;;;5.30;3.47;;;;;;;18.83;51.88;101453.31;5125290;27;20423;-59
2022/03/20 11:43:14;;;;;;;4.10;2.67;;;;;;;18.84;52.24;101452.13;5120158;27;20847;-60
2022/03/20 11:45:40;;;;;;;4.67;3.40;;;;;;;18.82;52.18;101445.91;5095961;28;20419;-60
2022/03/20 11:48:14;;;;;;;5.43;3.30;;;;;;;18.85;51.92;101448.06;5117720;27;20990;-60
2022/03/20 11:50:50;;;;;;;4.70;2.83;;;;;;;18.85;51.83;101456.66;5133763;27;20177;-59
2022/03/20 11:53:28;;;;;;;5.27;3.10;;;;;;;18.85;52.30;101442.34;5133720;27;20399;-59